Vitsentzos Kornaros — SXNX — position and weather

sailwx.info

Track history (hours):
 
Tides and Currents Weather Stations Pressure Air Temp Water Temp Dewpoint Dewpoint Depression Visibility Wind Speed Wind Dir Waves Ship Positions

Vitsentzos Kornaros

Last reported at 2014-Aug-27 19:33 UTC. Time now 2014-Aug-28 07:24 UTC.
Position N 35°50' E 023°24'.

Length 128 m; draft 4.5 m.

Type: Passenger vessel. MMSI: 239311000.

Date/timePositionNaut miles runAvg speedWind from/ knotsBaromVisibWave heightAir tempDewpointWater temp
2014-Aug-27 19:33N 35°50' E 023°24'9 8.6
2014-Aug-27 18:33N 35°56' E 023°17'19 0.5
2014-Aug-26 01:29N 35°44' E 023°34'7811.1
2014-Aug-25 18:27N 37°01' E 023°28'1313.7
2014-Aug-25 17:30N 37°14' E 023°33'1413.7
2014-Aug-25 16:30N 37°27' E 023°38'1313.8
2014-Aug-25 15:33N 37°40' E 023°41'1414.1
2014-Aug-25 14:33N 37°53' E 023°37'4 3.9
2014-Aug-25 13:33N 37°57' E 023°38'0 0.0
2014-Aug-25 12:34N 37°57' E 023°38'0 0.0
2014-Aug-25 11:34N 37°57' E 023°38'0 0.0
2014-Aug-25 10:34N 37°57' E 023°38'0 0.0
2014-Aug-25 09:34N 37°57' E 023°38'0 0.0
2014-Aug-25 08:34N 37°57' E 023°38'0 0.0
2014-Aug-25 07:33N 37°57' E 023°38'0 0.0
2014-Aug-25 06:31N 37°57' E 023°38'0 0.0
2014-Aug-25 05:32N 37°57' E 023°38'0 0.0
2014-Aug-25 04:33N 37°57' E 023°38'1 0.8
2014-Aug-25 03:33N 37°56' E 023°38'1313.2
2014-Aug-25 02:33N 37°44' E 023°44'1413.9
2014-Aug-25 01:33N 37°30' E 023°41'1514.5
2014-Aug-25 00:33N 37°17' E 023°35'1515.1
2014-Aug-24 23:34N 37°03' E 023°27'1514.9
2014-Aug-24 22:33N 36°48' E 023°22'1414.2
2014-Aug-24 21:33N 36°35' E 023°17'20 6.7
2014-Aug-24 18:31N 36°16' E 023°06'1313.5
2014-Aug-24 17:33N 36°05' E 023°13'12 9.4
2014-Aug-24 16:19N 35°54' E 023°17'1012.8
2014-Aug-24 15:33N 35°48' E 023°28'20 2.6
2014-Aug-24 08:09N 35°31' E 023°38'1113.4
2014-Aug-24 07:21N 35°41' E 023°35'1214.6
2014-Aug-24 06:32N 35°51' E 023°26'1414.6
2014-Aug-24 05:33N 36°03' E 023°17'1514.7
2014-Aug-24 04:33N 36°15' E 023°07'8 7.7
2014-Aug-24 03:32N 36°21' E 023°00'1713.5
2014-Aug-24 02:16N 36°23' E 022°39'64 2.7
2014-Aug-23 02:32N 35°39' E 023°37'1414.0
2014-Aug-23 01:33N 35°49' E 023°25'13 9.2
2014-Aug-23 00:08N 35°59' E 023°16'914.5
2014-Aug-22 23:32N 36°07' E 023°12'15 6.9
2014-Aug-22 21:23N 36°22' E 023°11'3014.5
2014-Aug-22 19:18N 36°51' E 023°23'1014.0
2014-Aug-22 18:33N 37°01' E 023°27'1413.8
2014-Aug-22 17:33N 37°13' E 023°33'1414.1
2014-Aug-22 16:33N 37°27' E 023°38'1414.0
2014-Aug-22 15:33N 37°41' E 023°41'1413.9
2014-Aug-22 14:34N 37°54' E 023°37'3 2.9
2014-Aug-22 13:33N 37°57' E 023°38'0 0.0
2014-Aug-22 12:33N 37°57' E 023°38'0 0.0
2014-Aug-22 11:33N 37°57' E 023°38'0 0.0
2014-Aug-22 10:33N 37°57' E 023°38'0 0.0
2014-Aug-22 09:33N 37°57' E 023°38'0 0.0
2014-Aug-22 08:33N 37°57' E 023°38'0 0.0
2014-Aug-22 07:33N 37°57' E 023°38'0 0.0
2014-Aug-22 06:33N 37°57' E 023°38'0 0.0
2014-Aug-22 05:33N 37°57' E 023°38'0 0.0
2014-Aug-22 04:33N 37°57' E 023°38'2 1.6
2014-Aug-22 03:33N 37°56' E 023°37'1211.6
2014-Aug-22 02:34N 37°46' E 023°43'1413.5
2014-Aug-22 01:33N 37°32' E 023°42'1514.6
2014-Aug-22 00:33N 37°18' E 023°35'1514.7
2014-Aug-21 23:33N 37°05' E 023°29'1514.7
2014-Aug-21 22:32N 36°51' E 023°23'1414.4
2014-Aug-21 21:33N 36°37' E 023°18'1514.0
2014-Aug-21 20:31N 36°23' E 023°11'12 5.9
2014-Aug-21 18:34N 36°12' E 023°10'1413.9
2014-Aug-21 17:33N 36°01' E 023°20'1614.1
2014-Aug-21 16:27N 35°48' E 023°31'1714.4
2014-Aug-21 15:15N 35°32' E 023°39'1 0.7
2014-Aug-21 13:18N 35°31' E 023°38'0 0.0
2014-Aug-21 12:17N 35°31' E 023°38'0 0.0
2014-Aug-21 11:33N 35°31' E 023°38'0 0.0
2014-Aug-21 10:33N 35°31' E 023°38'0 0.0
2014-Aug-21 09:30N 35°31' E 023°38'0 0.0
2014-Aug-21 08:33N 35°31' E 023°38'0 0.0
2014-Aug-21 07:33N 35°31' E 023°38'0 0.0
2014-Aug-21 04:04N 35°31' E 023°38'18 2.4
2014-Aug-20 20:33N 35°47' E 023°27'11 8.9
2014-Aug-20 19:20N 35°54' E 023°17'2513.9
2014-Aug-20 17:33N 36°17' E 023°06'75 1.5
2014-Aug-18 16:25N 37°27' E 023°38'1214.4
2014-Aug-18 15:33N 37°39' E 023°42'1414.3
2014-Aug-18 14:33N 37°52' E 023°37'5 4.7
2014-Aug-18 13:33N 37°57' E 023°38'0 0.0
2014-Aug-18 12:33N 37°57' E 023°38'0 0.0
2014-Aug-18 11:33N 37°57' E 023°38'0 0.0
2014-Aug-18 10:34N 37°57' E 023°38'0 0.0
2014-Aug-18 09:33N 37°57' E 023°38'0 0.0
2014-Aug-18 08:33N 37°57' E 023°38'0 0.0
2014-Aug-18 07:33N 37°57' E 023°38'0 0.0
2014-Aug-18 06:33N 37°57' E 023°38'0 0.0
2014-Aug-18 05:32N 37°57' E 023°38'0 0.0
2014-Aug-18 04:33N 37°57' E 023°38'5 5.1
2014-Aug-18 03:33N 37°52' E 023°39'1414.2
2014-Aug-18 02:33N 37°38' E 023°44'  
Track history (hours):
 
Tides and Currents Weather Stations Pressure Air Temp Water Temp Dewpoint Dewpoint Depression Visibility Wind Speed Wind Dir Waves Ship Positions

Vitsentzos Kornaros

Last reported at 2014-Aug-27 19:33 UTC. Time now 2014-Aug-28 07:24 UTC.
Position N 35°50' E 023°24'.

Length 128 m; draft 4.5 m.

Type: Passenger vessel. MMSI: 239311000.

Date/timePositionNaut miles runAvg speedWind from/ knotsBaromVisibWave heightAir tempDewpointWater temp
2014-Aug-27 19:33N 35°50' E 023°24'9 8.6
2014-Aug-27 18:33N 35°56' E 023°17'19 0.5
2014-Aug-26 01:29N 35°44' E 023°34'7811.1
2014-Aug-25 18:27N 37°01' E 023°28'1313.7
2014-Aug-25 17:30N 37°14' E 023°33'1413.7
2014-Aug-25 16:30N 37°27' E 023°38'1313.8
2014-Aug-25 15:33N 37°40' E 023°41'1414.1
2014-Aug-25 14:33N 37°53' E 023°37'4 3.9
2014-Aug-25 13:33N 37°57' E 023°38'0 0.0
2014-Aug-25 12:34N 37°57' E 023°38'0 0.0
2014-Aug-25 11:34N 37°57' E 023°38'0 0.0
2014-Aug-25 10:34N 37°57' E 023°38'0 0.0
2014-Aug-25 09:34N 37°57' E 023°38'0 0.0
2014-Aug-25 08:34N 37°57' E 023°38'0 0.0
2014-Aug-25 07:33N 37°57' E 023°38'0 0.0
2014-Aug-25 06:31N 37°57' E 023°38'0 0.0
2014-Aug-25 05:32N 37°57' E 023°38'0 0.0
2014-Aug-25 04:33N 37°57' E 023°38'1 0.8
2014-Aug-25 03:33N 37°56' E 023°38'1313.2
2014-Aug-25 02:33N 37°44' E 023°44'1413.9
2014-Aug-25 01:33N 37°30' E 023°41'1514.5
2014-Aug-25 00:33N 37°17' E 023°35'1515.1
2014-Aug-24 23:34N 37°03' E 023°27'1514.9
2014-Aug-24 22:33N 36°48' E 023°22'1414.2
2014-Aug-24 21:33N 36°35' E 023°17'20 6.7
2014-Aug-24 18:31N 36°16' E 023°06'1313.5
2014-Aug-24 17:33N 36°05' E 023°13'12 9.4
2014-Aug-24 16:19N 35°54' E 023°17'1012.8
2014-Aug-24 15:33N 35°48' E 023°28'20 2.6
2014-Aug-24 08:09N 35°31' E 023°38'1113.4
2014-Aug-24 07:21N 35°41' E 023°35'1214.6
2014-Aug-24 06:32N 35°51' E 023°26'1414.6
2014-Aug-24 05:33N 36°03' E 023°17'1514.7
2014-Aug-24 04:33N 36°15' E 023°07'8 7.7
2014-Aug-24 03:32N 36°21' E 023°00'1713.5
2014-Aug-24 02:16N 36°23' E 022°39'64 2.7
2014-Aug-23 02:32N 35°39' E 023°37'1414.0
2014-Aug-23 01:33N 35°49' E 023°25'13 9.2
2014-Aug-23 00:08N 35°59' E 023°16'914.5
2014-Aug-22 23:32N 36°07' E 023°12'15 6.9
2014-Aug-22 21:23N 36°22' E 023°11'3014.5
2014-Aug-22 19:18N 36°51' E 023°23'1014.0
2014-Aug-22 18:33N 37°01' E 023°27'1413.8
2014-Aug-22 17:33N 37°13' E 023°33'1414.1
2014-Aug-22 16:33N 37°27' E 023°38'1414.0
2014-Aug-22 15:33N 37°41' E 023°41'1413.9
2014-Aug-22 14:34N 37°54' E 023°37'3 2.9
2014-Aug-22 13:33N 37°57' E 023°38'0 0.0
2014-Aug-22 12:33N 37°57' E 023°38'0 0.0
2014-Aug-22 11:33N 37°57' E 023°38'0 0.0
2014-Aug-22 10:33N 37°57' E 023°38'0 0.0
2014-Aug-22 09:33N 37°57' E 023°38'0 0.0
2014-Aug-22 08:33N 37°57' E 023°38'0 0.0
2014-Aug-22 07:33N 37°57' E 023°38'0 0.0
2014-Aug-22 06:33N 37°57' E 023°38'0 0.0
2014-Aug-22 05:33N 37°57' E 023°38'0 0.0
2014-Aug-22 04:33N 37°57' E 023°38'2 1.6
2014-Aug-22 03:33N 37°56' E 023°37'1211.6
2014-Aug-22 02:34N 37°46' E 023°43'1413.5
2014-Aug-22 01:33N 37°32' E 023°42'1514.6
2014-Aug-22 00:33N 37°18' E 023°35'1514.7
2014-Aug-21 23:33N 37°05' E 023°29'1514.7
2014-Aug-21 22:32N 36°51' E 023°23'1414.4
2014-Aug-21 21:33N 36°37' E 023°18'1514.0
2014-Aug-21 20:31N 36°23' E 023°11'12 5.9
2014-Aug-21 18:34N 36°12' E 023°10'1413.9
2014-Aug-21 17:33N 36°01' E 023°20'1614.1
2014-Aug-21 16:27N 35°48' E 023°31'1714.4
2014-Aug-21 15:15N 35°32' E 023°39'1 0.7
2014-Aug-21 13:18N 35°31' E 023°38'0 0.0
2014-Aug-21 12:17N 35°31' E 023°38'0 0.0
2014-Aug-21 11:33N 35°31' E 023°38'0 0.0
2014-Aug-21 10:33N 35°31' E 023°38'0 0.0
2014-Aug-21 09:30N 35°31' E 023°38'0 0.0
2014-Aug-21 08:33N 35°31' E 023°38'0 0.0
2014-Aug-21 07:33N 35°31' E 023°38'0 0.0
2014-Aug-21 04:04N 35°31' E 023°38'18 2.4
2014-Aug-20 20:33N 35°47' E 023°27'11 8.9
2014-Aug-20 19:20N 35°54' E 023°17'2513.9
2014-Aug-20 17:33N 36°17' E 023°06'75 1.5
2014-Aug-18 16:25N 37°27' E 023°38'1214.4
2014-Aug-18 15:33N 37°39' E 023°42'1414.3
2014-Aug-18 14:33N 37°52' E 023°37'5 4.7
2014-Aug-18 13:33N 37°57' E 023°38'0 0.0
2014-Aug-18 12:33N 37°57' E 023°38'0 0.0
2014-Aug-18 11:33N 37°57' E 023°38'0 0.0
2014-Aug-18 10:34N 37°57' E 023°38'0 0.0
2014-Aug-18 09:33N 37°57' E 023°38'0 0.0
2014-Aug-18 08:33N 37°57' E 023°38'0 0.0
2014-Aug-18 07:33N 37°57' E 023°38'0 0.0
2014-Aug-18 06:33N 37°57' E 023°38'0 0.0
2014-Aug-18 05:32N 37°57' E 023°38'0 0.0
2014-Aug-18 04:33N 37°57' E 023°38'5 5.1
2014-Aug-18 03:33N 37°52' E 023°39'1414.2
2014-Aug-18 02:33N 37°38' E 023°44'  

Dump ship's entire track history